sensor_id;sensor_type;location;lat;lon;timestamp;P1;durP1;ratioP1;P2;durP2;ratioP2
83659;SDS011;73632;50.808;3.422;2024-02-04T00:00:52;9.10;;;3.72;;
83659;SDS011;73632;50.808;3.422;2024-02-04T00:03:18;14.70;;;3.95;;
83659;SDS011;73632;50.808;3.422;2024-02-04T00:05:44;6.63;;;2.92;;
83659;SDS011;73632;50.808;3.422;2024-02-04T00:08:09;7.90;;;2.80;;
83659;SDS011;73632;50.808;3.422;2024-02-04T00:10:35;8.65;;;3.22;;
83659;SDS011;73632;50.808;3.422;2024-02-04T00:13:00;9.00;;;3.35;;
83659;SDS011;73632;50.808;3.422;2024-02-04T00:15:26;9.65;;;3.17;;
83659;SDS011;73632;50.808;3.422;2024-02-04T00:17:51;10.15;;;3.50;;
83659;SDS011;73632;50.808;3.422;2024-02-04T00:20:17;10.38;;;3.72;;
83659;SDS011;73632;50.808;3.422;2024-02-04T00:22:42;9.63;;;3.30;;
83659;SDS011;73632;50.808;3.422;2024-02-04T00:25:07;16.17;;;3.83;;
83659;SDS011;73632;50.808;3.422;2024-02-04T00:27:36;11.88;;;4.18;;
83659;SDS011;73632;50.808;3.422;2024-02-04T00:30:02;11.93;;;3.70;;
83659;SDS011;73632;50.808;3.422;2024-02-04T00:32:28;19.65;;;4.80;;
83659;SDS011;73632;50.808;3.422;2024-02-04T00:34:53;13.65;;;4.35;;
83659;SDS011;73632;50.808;3.422;2024-02-04T00:37:19;22.02;;;4.35;;
83659;SDS011;73632;50.808;3.422;2024-02-04T00:39:44;19.15;;;4.78;;
83659;SDS011;73632;50.808;3.422;2024-02-04T00:42:10;15.13;;;4.82;;
83659;SDS011;73632;50.808;3.422;2024-02-04T00:44:35;19.15;;;6.35;;
83659;SDS011;73632;50.808;3.422;2024-02-04T00:47:01;21.10;;;7.38;;
83659;SDS011;73632;50.808;3.422;2024-02-04T00:49:26;19.13;;;6.10;;
83659;SDS011;73632;50.808;3.422;2024-02-04T00:51:52;16.95;;;7.05;;
83659;SDS011;73632;50.808;3.422;2024-02-04T00:54:18;20.90;;;5.75;;
83659;SDS011;73632;50.808;3.422;2024-02-04T00:56:43;21.08;;;5.95;;
83659;SDS011;73632;50.808;3.422;2024-02-04T00:59:08;21.17;;;6.13;;
83659;SDS011;73632;50.808;3.422;2024-02-04T01:01:34;21.25;;;6.50;;
83659;SDS011;73632;50.808;3.422;2024-02-04T01:04:00;19.20;;;6.78;;
83659;SDS011;73632;50.808;3.422;2024-02-04T01:06:25;23.05;;;6.93;;
83659;SDS011;73632;50.808;3.422;2024-02-04T01:08:51;22.63;;;6.22;;
83659;SDS011;73632;50.808;3.422;2024-02-04T01:11:16;17.70;;;6.20;;
83659;SDS011;73632;50.808;3.422;2024-02-04T01:13:41;28.65;;;6.55;;
83659;SDS011;73632;50.808;3.422;2024-02-04T01:16:07;22.27;;;6.65;;
83659;SDS011;73632;50.808;3.422;2024-02-04T01:18:32;25.08;;;6.35;;
83659;SDS011;73632;50.808;3.422;2024-02-04T01:20:58;17.92;;;5.97;;
83659;SDS011;73632;50.808;3.422;2024-02-04T01:23:25;23.80;;;6.35;;
83659;SDS011;73632;50.808;3.422;2024-02-04T01:25:50;17.17;;;6.43;;
83659;SDS011;73632;50.808;3.422;2024-02-04T01:28:16;26.13;;;5.90;;
83659;SDS011;73632;50.808;3.422;2024-02-04T01:30:41;15.70;;;6.03;;
83659;SDS011;73632;50.808;3.422;2024-02-04T01:33:07;20.05;;;5.63;;
83659;SDS011;73632;50.808;3.422;2024-02-04T01:35:32;22.55;;;6.38;;
83659;SDS011;73632;50.808;3.422;2024-02-04T01:37:58;27.33;;;6.00;;
83659;SDS011;73632;50.808;3.422;2024-02-04T01:40:23;20.80;;;6.60;;
83659;SDS011;73632;50.808;3.422;2024-02-04T01:42:48;24.65;;;6.03;;
83659;SDS011;73632;50.808;3.422;2024-02-04T01:45:14;21.10;;;6.28;;
83659;SDS011;73632;50.808;3.422;2024-02-04T01:47:39;16.25;;;5.88;;
83659;SDS011;73632;50.808;3.422;2024-02-04T01:50:05;27.58;;;5.95;;
83659;SDS011;73632;50.808;3.422;2024-02-04T01:52:32;23.40;;;5.40;;
83659;SDS011;73632;50.808;3.422;2024-02-04T01:55:00;23.65;;;5.88;;
83659;SDS011;73632;50.808;3.422;2024-02-04T01:57:28;23.27;;;5.50;;
83659;SDS011;73632;50.808;3.422;2024-02-04T01:59:53;25.90;;;6.00;;
83659;SDS011;73632;50.808;3.422;2024-02-04T02:02:22;15.88;;;5.80;;
83659;SDS011;73632;50.808;3.422;2024-02-04T02:04:48;22.77;;;5.88;;
83659;SDS011;73632;50.808;3.422;2024-02-04T02:07:15;23.00;;;6.40;;
83659;SDS011;73632;50.808;3.422;2024-02-04T02:09:42;31.70;;;6.15;;
83659;SDS011;73632;50.808;3.422;2024-02-04T02:12:09;33.45;;;7.97;;
83659;SDS011;73632;50.808;3.422;2024-02-04T02:14:39;25.53;;;6.60;;
83659;SDS011;73632;50.808;3.422;2024-02-04T02:17:10;18.67;;;5.55;;
83659;SDS011;73632;50.808;3.422;2024-02-04T02:19:56;25.08;;;6.50;;
83659;SDS011;73632;50.808;3.422;2024-02-04T02:22:47;17.00;;;5.78;;
83659;SDS011;73632;50.808;3.422;2024-02-04T02:25:14;24.55;;;5.90;;
83659;SDS011;73632;50.808;3.422;2024-02-04T02:27:51;16.42;;;5.32;;
83659;SDS011;73632;50.808;3.422;2024-02-04T02:30:17;23.55;;;6.38;;
83659;SDS011;73632;50.808;3.422;2024-02-04T02:32:43;25.95;;;6.30;;
83659;SDS011;73632;50.808;3.422;2024-02-04T02:35:14;24.92;;;6.78;;
83659;SDS011;73632;50.808;3.422;2024-02-04T02:37:45;26.48;;;6.35;;
83659;SDS011;73632;50.808;3.422;2024-02-04T02:40:30;21.80;;;6.95;;
83659;SDS011;73632;50.808;3.422;2024-02-04T02:43:05;30.80;;;6.47;;
83659;SDS011;73632;50.808;3.422;2024-02-04T02:45:31;32.53;;;8.02;;
83659;SDS011;73632;50.808;3.422;2024-02-04T02:47:57;28.58;;;9.18;;
83659;SDS011;73632;50.808;3.422;2024-02-04T02:50:23;27.95;;;7.90;;
83659;SDS011;73632;50.808;3.422;2024-02-04T02:52:48;31.50;;;9.23;;
83659;SDS011;73632;50.808;3.422;2024-02-04T02:55:14;38.15;;;10.73;;
83659;SDS011;73632;50.808;3.422;2024-02-04T02:57:39;35.83;;;10.88;;
83659;SDS011;73632;50.808;3.422;2024-02-04T03:00:05;40.97;;;10.63;;
83659;SDS011;73632;50.808;3.422;2024-02-04T03:02:31;45.45;;;11.07;;
83659;SDS011;73632;50.808;3.422;2024-02-04T03:04:57;45.72;;;11.55;;
83659;SDS011;73632;50.808;3.422;2024-02-04T03:07:23;38.90;;;11.45;;
83659;SDS011;73632;50.808;3.422;2024-02-04T03:09:48;34.35;;;11.35;;
83659;SDS011;73632;50.808;3.422;2024-02-04T03:12:13;34.15;;;12.07;;
83659;SDS011;73632;50.808;3.422;2024-02-04T03:14:39;41.90;;;12.43;;
83659;SDS011;73632;50.808;3.422;2024-02-04T03:17:04;43.72;;;11.23;;
83659;SDS011;73632;50.808;3.422;2024-02-04T03:19:30;37.35;;;12.32;;
83659;SDS011;73632;50.808;3.422;2024-02-04T03:21:55;37.15;;;11.63;;
83659;SDS011;73632;50.808;3.422;2024-02-04T03:24:20;45.92;;;10.98;;
83659;SDS011;73632;50.808;3.422;2024-02-04T03:26:46;35.55;;;11.05;;
83659;SDS011;73632;50.808;3.422;2024-02-04T03:29:11;43.08;;;11.35;;
83659;SDS011;73632;50.808;3.422;2024-02-04T03:31:36;46.55;;;11.00;;
83659;SDS011;73632;50.808;3.422;2024-02-04T03:34:02;34.47;;;9.38;;
83659;SDS011;73632;50.808;3.422;2024-02-04T03:36:27;40.47;;;10.10;;
83659;SDS011;73632;50.808;3.422;2024-02-04T03:38:53;28.95;;;7.68;;
83659;SDS011;73632;50.808;3.422;2024-02-04T03:41:18;52.40;;;10.25;;
83659;SDS011;73632;50.808;3.422;2024-02-04T03:43:44;29.65;;;8.15;;
83659;SDS011;73632;50.808;3.422;2024-02-04T03:46:13;35.45;;;8.38;;
83659;SDS011;73632;50.808;3.422;2024-02-04T03:48:39;38.47;;;7.72;;
83659;SDS011;73632;50.808;3.422;2024-02-04T03:51:05;29.05;;;7.70;;
83659;SDS011;73632;50.808;3.422;2024-02-04T03:53:30;28.67;;;9.40;;
83659;SDS011;73632;50.808;3.422;2024-02-04T03:55:55;30.27;;;9.20;;
83659;SDS011;73632;50.808;3.422;2024-02-04T03:58:21;35.17;;;8.07;;
83659;SDS011;73632;50.808;3.422;2024-02-04T04:00:54;43.95;;;8.07;;
83659;SDS011;73632;50.808;3.422;2024-02-04T04:03:20;31.80;;;8.93;;
83659;SDS011;73632;50.808;3.422;2024-02-04T04:05:45;41.90;;;8.73;;
83659;SDS011;73632;50.808;3.422;2024-02-04T04:08:10;26.02;;;8.38;;
83659;SDS011;73632;50.808;3.422;2024-02-04T04:10:36;32.03;;;8.25;;
83659;SDS011;73632;50.808;3.422;2024-02-04T04:13:01;31.90;;;9.10;;
83659;SDS011;73632;50.808;3.422;2024-02-04T04:15:27;37.92;;;10.20;;
83659;SDS011;73632;50.808;3.422;2024-02-04T04:17:52;32.47;;;10.38;;
83659;SDS011;73632;50.808;3.422;2024-02-04T04:20:17;33.40;;;12.48;;
83659;SDS011;73632;50.808;3.422;2024-02-04T04:22:43;31.58;;;11.40;;
83659;SDS011;73632;50.808;3.422;2024-02-04T04:25:08;34.78;;;12.38;;
83659;SDS011;73632;50.808;3.422;2024-02-04T04:27:34;28.02;;;11.77;;
83659;SDS011;73632;50.808;3.422;2024-02-04T04:30:00;30.92;;;11.80;;
83659;SDS011;73632;50.808;3.422;2024-02-04T04:32:25;33.78;;;11.75;;
83659;SDS011;73632;50.808;3.422;2024-02-04T04:34:50;37.13;;;10.93;;
83659;SDS011;73632;50.808;3.422;2024-02-04T04:37:16;30.50;;;9.25;;
83659;SDS011;73632;50.808;3.422;2024-02-04T04:39:41;34.03;;;10.10;;
83659;SDS011;73632;50.808;3.422;2024-02-04T04:42:07;42.90;;;9.80;;
83659;SDS011;73632;50.808;3.422;2024-02-04T04:44:32;32.90;;;9.98;;
83659;SDS011;73632;50.808;3.422;2024-02-04T04:46:57;32.15;;;9.68;;
83659;SDS011;73632;50.808;3.422;2024-02-04T04:49:23;35.38;;;9.95;;
83659;SDS011;73632;50.808;3.422;2024-02-04T04:51:48;31.77;;;8.85;;
83659;SDS011;73632;50.808;3.422;2024-02-04T04:54:14;27.52;;;9.55;;
83659;SDS011;73632;50.808;3.422;2024-02-04T04:56:39;26.65;;;10.65;;
83659;SDS011;73632;50.808;3.422;2024-02-04T04:59:08;31.30;;;10.02;;
83659;SDS011;73632;50.808;3.422;2024-02-04T05:01:34;32.17;;;10.38;;
83659;SDS011;73632;50.808;3.422;2024-02-04T05:04:00;35.60;;;12.38;;
83659;SDS011;73632;50.808;3.422;2024-02-04T05:06:26;51.28;;;15.38;;
83659;SDS011;73632;50.808;3.422;2024-02-04T05:08:52;33.85;;;11.77;;
83659;SDS011;73632;50.808;3.422;2024-02-04T05:11:17;33.60;;;11.60;;
83659;SDS011;73632;50.808;3.422;2024-02-04T05:13:43;44.88;;;12.77;;
83659;SDS011;73632;50.808;3.422;2024-02-04T05:16:08;33.38;;;11.98;;
83659;SDS011;73632;50.808;3.422;2024-02-04T05:18:34;38.00;;;12.57;;
83659;SDS011;73632;50.808;3.422;2024-02-04T05:21:00;27.40;;;10.90;;
83659;SDS011;73632;50.808;3.422;2024-02-04T05:23:27;27.05;;;10.23;;
83659;SDS011;73632;50.808;3.422;2024-02-04T05:25:53;42.08;;;12.32;;
83659;SDS011;73632;50.808;3.422;2024-02-04T05:28:18;30.83;;;11.18;;
83659;SDS011;73632;50.808;3.422;2024-02-04T05:30:43;33.15;;;12.20;;
83659;SDS011;73632;50.808;3.422;2024-02-04T05:33:09;40.00;;;12.57;;
83659;SDS011;73632;50.808;3.422;2024-02-04T05:35:38;38.33;;;12.40;;
83659;SDS011;73632;50.808;3.422;2024-02-04T05:38:05;33.78;;;12.32;;
83659;SDS011;73632;50.808;3.422;2024-02-04T05:40:30;30.95;;;12.35;;
83659;SDS011;73632;50.808;3.422;2024-02-04T05:42:56;30.70;;;11.95;;
83659;SDS011;73632;50.808;3.422;2024-02-04T05:45:22;46.42;;;13.52;;
83659;SDS011;73632;50.808;3.422;2024-02-04T05:47:47;29.60;;;12.75;;
83659;SDS011;73632;50.808;3.422;2024-02-04T05:50:12;32.35;;;14.27;;
83659;SDS011;73632;50.808;3.422;2024-02-04T05:52:38;29.98;;;13.98;;
83659;SDS011;73632;50.808;3.422;2024-02-04T05:55:04;32.63;;;13.77;;
83659;SDS011;73632;50.808;3.422;2024-02-04T05:57:29;32.90;;;14.25;;
83659;SDS011;73632;50.808;3.422;2024-02-04T05:59:55;31.45;;;13.23;;
83659;SDS011;73632;50.808;3.422;2024-02-04T06:02:20;34.72;;;13.05;;
83659;SDS011;73632;50.808;3.422;2024-02-04T06:04:46;31.33;;;11.75;;
83659;SDS011;73632;50.808;3.422;2024-02-04T06:07:13;26.80;;;12.43;;
83659;SDS011;73632;50.808;3.422;2024-02-04T06:09:38;32.50;;;11.98;;
83659;SDS011;73632;50.808;3.422;2024-02-04T06:12:04;35.10;;;12.32;;
83659;SDS011;73632;50.808;3.422;2024-02-04T06:14:32;33.67;;;13.30;;
83659;SDS011;73632;50.808;3.422;2024-02-04T06:16:58;34.75;;;12.00;;
83659;SDS011;73632;50.808;3.422;2024-02-04T06:19:24;25.55;;;11.55;;
83659;SDS011;73632;50.808;3.422;2024-02-04T06:21:49;21.08;;;10.27;;
83659;SDS011;73632;50.808;3.422;2024-02-04T06:24:14;18.45;;;8.48;;
83659;SDS011;73632;50.808;3.422;2024-02-04T06:26:40;15.25;;;7.72;;
83659;SDS011;73632;50.808;3.422;2024-02-04T06:29:06;24.45;;;7.80;;
83659;SDS011;73632;50.808;3.422;2024-02-04T06:31:31;20.20;;;7.05;;
83659;SDS011;73632;50.808;3.422;2024-02-04T06:33:56;20.08;;;6.28;;
83659;SDS011;73632;50.808;3.422;2024-02-04T06:36:22;16.65;;;6.07;;
83659;SDS011;73632;50.808;3.422;2024-02-04T06:38:47;25.67;;;6.13;;
83659;SDS011;73632;50.808;3.422;2024-02-04T06:41:13;16.17;;;5.65;;
83659;SDS011;73632;50.808;3.422;2024-02-04T06:43:38;20.17;;;5.90;;
83659;SDS011;73632;50.808;3.422;2024-02-04T06:46:04;15.73;;;4.88;;
83659;SDS011;73632;50.808;3.422;2024-02-04T06:48:30;23.27;;;5.13;;
83659;SDS011;73632;50.808;3.422;2024-02-04T06:50:55;13.25;;;4.30;;
83659;SDS011;73632;50.808;3.422;2024-02-04T06:53:20;16.75;;;4.80;;
83659;SDS011;73632;50.808;3.422;2024-02-04T06:55:46;23.83;;;4.72;;
83659;SDS011;73632;50.808;3.422;2024-02-04T06:58:11;14.88;;;3.88;;
83659;SDS011;73632;50.808;3.422;2024-02-04T07:00:37;14.45;;;3.97;;
83659;SDS011;73632;50.808;3.422;2024-02-04T07:03:02;16.83;;;3.88;;
83659;SDS011;73632;50.808;3.422;2024-02-04T07:05:28;9.18;;;4.13;;
83659;SDS011;73632;50.808;3.422;2024-02-04T07:07:53;16.63;;;4.28;;
83659;SDS011;73632;50.808;3.422;2024-02-04T07:10:19;27.67;;;4.97;;
83659;SDS011;73632;50.808;3.422;2024-02-04T07:12:44;19.58;;;4.90;;
83659;SDS011;73632;50.808;3.422;2024-02-04T07:15:10;19.15;;;5.85;;
83659;SDS011;73632;50.808;3.422;2024-02-04T07:17:35;22.17;;;5.70;;
83659;SDS011;73632;50.808;3.422;2024-02-04T07:20:01;18.63;;;6.38;;
83659;SDS011;73632;50.808;3.422;2024-02-04T07:22:27;14.82;;;5.32;;
83659;SDS011;73632;50.808;3.422;2024-02-04T07:24:53;25.75;;;6.45;;
83659;SDS011;73632;50.808;3.422;2024-02-04T07:27:18;16.67;;;6.68;;
83659;SDS011;73632;50.808;3.422;2024-02-04T07:29:44;16.05;;;5.47;;
83659;SDS011;73632;50.808;3.422;2024-02-04T07:32:09;26.65;;;6.10;;
83659;SDS011;73632;50.808;3.422;2024-02-04T07:34:35;18.15;;;5.50;;
83659;SDS011;73632;50.808;3.422;2024-02-04T07:37:00;19.88;;;5.28;;
83659;SDS011;73632;50.808;3.422;2024-02-04T07:39:26;15.50;;;5.93;;
83659;SDS011;73632;50.808;3.422;2024-02-04T07:41:51;20.25;;;5.60;;
83659;SDS011;73632;50.808;3.422;2024-02-04T07:44:19;23.58;;;5.10;;
83659;SDS011;73632;50.808;3.422;2024-02-04T07:46:44;17.27;;;5.45;;
83659;SDS011;73632;50.808;3.422;2024-02-04T07:49:09;12.38;;;4.50;;
83659;SDS011;73632;50.808;3.422;2024-02-04T07:51:35;12.93;;;4.68;;
83659;SDS011;73632;50.808;3.422;2024-02-04T07:54:01;19.33;;;4.60;;
83659;SDS011;73632;50.808;3.422;2024-02-04T07:56:26;16.42;;;4.00;;
83659;SDS011;73632;50.808;3.422;2024-02-04T07:58:51;20.13;;;4.03;;
83659;SDS011;73632;50.808;3.422;2024-02-04T08:01:18;13.60;;;3.83;;
83659;SDS011;73632;50.808;3.422;2024-02-04T08:03:43;15.27;;;3.22;;
83659;SDS011;73632;50.808;3.422;2024-02-04T08:06:09;12.50;;;3.05;;
83659;SDS011;73632;50.808;3.422;2024-02-04T08:08:34;19.58;;;4.00;;
83659;SDS011;73632;50.808;3.422;2024-02-04T08:10:59;17.33;;;3.60;;
83659;SDS011;73632;50.808;3.422;2024-02-04T08:13:25;20.27;;;3.60;;
83659;SDS011;73632;50.808;3.422;2024-02-04T08:15:50;13.95;;;2.92;;
83659;SDS011;73632;50.808;3.422;2024-02-04T08:18:15;16.33;;;3.20;;
83659;SDS011;73632;50.808;3.422;2024-02-04T08:20:41;17.85;;;4.22;;
83659;SDS011;73632;50.808;3.422;2024-02-04T08:23:06;10.93;;;2.88;;
83659;SDS011;73632;50.808;3.422;2024-02-04T08:25:33;12.77;;;3.97;;
83659;SDS011;73632;50.808;3.422;2024-02-04T08:27:58;16.02;;;3.78;;
83659;SDS011;73632;50.808;3.422;2024-02-04T08:30:23;17.17;;;3.40;;
83659;SDS011;73632;50.808;3.422;2024-02-04T08:32:49;13.70;;;3.60;;
83659;SDS011;73632;50.808;3.422;2024-02-04T08:35:14;10.30;;;3.28;;
83659;SDS011;73632;50.808;3.422;2024-02-04T08:37:40;14.18;;;3.67;;
83659;SDS011;73632;50.808;3.422;2024-02-04T08:40:05;15.70;;;4.00;;
83659;SDS011;73632;50.808;3.422;2024-02-04T08:42:31;14.63;;;3.95;;
83659;SDS011;73632;50.808;3.422;2024-02-04T08:44:57;15.20;;;3.42;;
83659;SDS011;73632;50.808;3.422;2024-02-04T08:47:22;14.88;;;4.00;;
83659;SDS011;73632;50.808;3.422;2024-02-04T08:49:48;13.77;;;3.67;;
83659;SDS011;73632;50.808;3.422;2024-02-04T08:52:13;11.70;;;3.65;;
83659;SDS011;73632;50.808;3.422;2024-02-04T08:54:38;18.70;;;5.15;;
83659;SDS011;73632;50.808;3.422;2024-02-04T08:57:04;9.73;;;4.85;;
83659;SDS011;73632;50.808;3.422;2024-02-04T08:59:29;12.23;;;5.05;;
83659;SDS011;73632;50.808;3.422;2024-02-04T09:01:55;14.75;;;4.78;;
83659;SDS011;73632;50.808;3.422;2024-02-04T09:04:20;12.70;;;3.85;;
83659;SDS011;73632;50.808;3.422;2024-02-04T09:06:45;16.83;;;3.83;;
83659;SDS011;73632;50.808;3.422;2024-02-04T09:09:11;10.20;;;2.40;;
83659;SDS011;73632;50.808;3.422;2024-02-04T09:11:36;10.85;;;2.80;;
83659;SDS011;73632;50.808;3.422;2024-02-04T09:14:02;8.73;;;2.45;;
83659;SDS011;73632;50.808;3.422;2024-02-04T09:16:29;12.02;;;3.25;;
83659;SDS011;73632;50.808;3.422;2024-02-04T09:18:54;14.10;;;3.53;;
83659;SDS011;73632;50.808;3.422;2024-02-04T09:21:20;11.00;;;3.50;;
83659;SDS011;73632;50.808;3.422;2024-02-04T09:23:45;12.10;;;3.38;;
83659;SDS011;73632;50.808;3.422;2024-02-04T09:26:11;9.18;;;3.03;;
83659;SDS011;73632;50.808;3.422;2024-02-04T09:28:36;15.43;;;3.95;;
83659;SDS011;73632;50.808;3.422;2024-02-04T09:31:02;10.70;;;3.30;;
83659;SDS011;73632;50.808;3.422;2024-02-04T09:33:28;13.00;;;3.47;;
83659;SDS011;73632;50.808;3.422;2024-02-04T09:35:53;11.35;;;3.28;;
83659;SDS011;73632;50.808;3.422;2024-02-04T09:38:19;10.05;;;3.08;;
83659;SDS011;73632;50.808;3.422;2024-02-04T09:40:45;16.05;;;3.08;;
83659;SDS011;73632;50.808;3.422;2024-02-04T09:43:10;19.05;;;4.18;;
83659;SDS011;73632;50.808;3.422;2024-02-04T09:45:36;14.73;;;3.45;;
83659;SDS011;73632;50.808;3.422;2024-02-04T09:48:03;13.23;;;3.13;;
83659;SDS011;73632;50.808;3.422;2024-02-04T09:50:29;16.75;;;3.53;;
83659;SDS011;73632;50.808;3.422;2024-02-04T09:52:55;15.75;;;3.60;;
83659;SDS011;73632;50.808;3.422;2024-02-04T09:55:25;7.65;;;2.53;;
83659;SDS011;73632;50.808;3.422;2024-02-04T09:57:51;9.52;;;2.97;;
83659;SDS011;73632;50.808;3.422;2024-02-04T10:00:20;13.55;;;2.72;;
83659;SDS011;73632;50.808;3.422;2024-02-04T10:02:52;12.63;;;3.43;;
83659;SDS011;73632;50.808;3.422;2024-02-04T10:05:20;8.40;;;2.72;;
83659;SDS011;73632;50.808;3.422;2024-02-04T10:07:46;16.48;;;2.97;;
83659;SDS011;73632;50.808;3.422;2024-02-04T10:10:11;11.95;;;3.10;;
83659;SDS011;73632;50.808;3.422;2024-02-04T10:12:37;11.13;;;2.88;;
83659;SDS011;73632;50.808;3.422;2024-02-04T10:15:04;11.25;;;2.40;;
83659;SDS011;73632;50.808;3.422;2024-02-04T10:17:30;12.60;;;2.70;;
83659;SDS011;73632;50.808;3.422;2024-02-04T10:19:56;10.35;;;2.65;;
83659;SDS011;73632;50.808;3.422;2024-02-04T10:22:22;8.30;;;2.50;;
83659;SDS011;73632;50.808;3.422;2024-02-04T10:24:48;10.15;;;2.50;;
83659;SDS011;73632;50.808;3.422;2024-02-04T10:27:14;8.48;;;2.45;;
83659;SDS011;73632;50.808;3.422;2024-02-04T10:29:40;14.30;;;2.95;;
83659;SDS011;73632;50.808;3.422;2024-02-04T10:32:06;11.02;;;2.90;;
83659;SDS011;73632;50.808;3.422;2024-02-04T10:34:35;9.30;;;2.42;;
83659;SDS011;73632;50.808;3.422;2024-02-04T10:37:02;10.88;;;3.35;;
83659;SDS011;73632;50.808;3.422;2024-02-04T10:39:27;13.20;;;2.90;;
83659;SDS011;73632;50.808;3.422;2024-02-04T10:41:53;9.32;;;2.60;;
83659;SDS011;73632;50.808;3.422;2024-02-04T10:44:21;11.35;;;2.42;;
83659;SDS011;73632;50.808;3.422;2024-02-04T10:46:48;8.90;;;2.53;;
83659;SDS011;73632;50.808;3.422;2024-02-04T10:49:15;8.70;;;3.13;;
83659;SDS011;73632;50.808;3.422;2024-02-04T10:51:42;13.15;;;2.72;;
83659;SDS011;73632;50.808;3.422;2024-02-04T10:54:10;10.23;;;2.97;;
83659;SDS011;73632;50.808;3.422;2024-02-04T10:56:44;7.72;;;2.30;;
83659;SDS011;73632;50.808;3.422;2024-02-04T10:59:11;9.70;;;1.95;;
83659;SDS011;73632;50.808;3.422;2024-02-04T11:01:40;14.43;;;2.50;;
83659;SDS011;73632;50.808;3.422;2024-02-04T11:04:06;9.43;;;2.58;;
83659;SDS011;73632;50.808;3.422;2024-02-04T11:06:35;14.63;;;3.15;;
83659;SDS011;73632;50.808;3.422;2024-02-04T11:09:01;12.18;;;2.45;;
83659;SDS011;73632;50.808;3.422;2024-02-04T11:11:28;9.10;;;2.08;;
83659;SDS011;73632;50.808;3.422;2024-02-04T11:13:55;11.65;;;2.45;;
83659;SDS011;73632;50.808;3.422;2024-02-04T11:16:28;10.50;;;2.85;;
83659;SDS011;73632;50.808;3.422;2024-02-04T11:19:11;10.40;;;2.90;;
83659;SDS011;73632;50.808;3.422;2024-02-04T11:24:42;10.47;;;2.67;;
83659;SDS011;73632;50.808;3.422;2024-02-04T11:27:18;18.17;;;4.22;;
83659;SDS011;73632;50.808;3.422;2024-02-04T11:29:44;20.23;;;4.18;;
83659;SDS011;73632;50.808;3.422;2024-02-04T11:32:10;18.45;;;5.43;;
83659;SDS011;73632;50.808;3.422;2024-02-04T11:34:37;13.70;;;4.57;;
83659;SDS011;73632;50.808;3.422;2024-02-04T11:37:15;24.48;;;4.95;;
83659;SDS011;73632;50.808;3.422;2024-02-04T11:39:47;10.48;;;3.17;;
83659;SDS011;73632;50.808;3.422;2024-02-04T11:42:14;20.30;;;4.47;;
83659;SDS011;73632;50.808;3.422;2024-02-04T11:44:41;16.58;;;3.13;;
83659;SDS011;73632;50.808;3.422;2024-02-04T11:47:07;15.05;;;2.90;;
83659;SDS011;73632;50.808;3.422;2024-02-04T11:49:32;11.95;;;2.92;;
83659;SDS011;73632;50.808;3.422;2024-02-04T11:51:58;16.70;;;2.90;;
83659;SDS011;73632;50.808;3.422;2024-02-04T11:54:27;13.23;;;3.40;;
83659;SDS011;73632;50.808;3.422;2024-02-04T11:56:53;17.02;;;2.60;;
83659;SDS011;73632;50.808;3.422;2024-02-04T11:59:23;17.08;;;3.72;;
83659;SDS011;73632;50.808;3.422;2024-02-04T12:01:53;9.98;;;3.22;;
83659;SDS011;73632;50.808;3.422;2024-02-04T12:04:19;8.65;;;2.58;;
83659;SDS011;73632;50.808;3.422;2024-02-04T12:06:46;18.15;;;3.45;;
83659;SDS011;73632;50.808;3.422;2024-02-04T12:09:12;11.00;;;2.72;;
83659;SDS011;73632;50.808;3.422;2024-02-04T12:11:43;13.15;;;2.60;;
83659;SDS011;73632;50.808;3.422;2024-02-04T12:14:09;15.25;;;3.35;;
83659;SDS011;73632;50.808;3.422;2024-02-04T12:16:35;11.52;;;2.90;;
83659;SDS011;73632;50.808;3.422;2024-02-04T12:19:04;19.27;;;3.63;;
83659;SDS011;73632;50.808;3.422;2024-02-04T12:21:29;13.52;;;3.15;;
83659;SDS011;73632;50.808;3.422;2024-02-04T12:23:55;14.50;;;2.97;;
83659;SDS011;73632;50.808;3.422;2024-02-04T12:26:21;20.38;;;3.00;;
83659;SDS011;73632;50.808;3.422;2024-02-04T12:28:48;9.85;;;3.15;;
83659;SDS011;73632;50.808;3.422;2024-02-04T12:31:20;16.23;;;3.38;;
83659;SDS011;73632;50.808;3.422;2024-02-04T12:34:07;12.27;;;3.03;;
83659;SDS011;73632;50.808;3.422;2024-02-04T12:36:34;14.05;;;3.17;;
83659;SDS011;73632;50.808;3.422;2024-02-04T12:39:00;13.65;;;2.75;;
83659;SDS011;73632;50.808;3.422;2024-02-04T12:41:26;17.67;;;3.83;;
83659;SDS011;73632;50.808;3.422;2024-02-04T12:43:57;12.45;;;3.97;;
83659;SDS011;73632;50.808;3.422;2024-02-04T12:46:24;12.60;;;4.35;;
83659;SDS011;73632;50.808;3.422;2024-02-04T12:48:56;23.17;;;3.30;;
83659;SDS011;73632;50.808;3.422;2024-02-04T12:51:23;19.55;;;4.93;;
83659;SDS011;73632;50.808;3.422;2024-02-04T12:54:11;28.08;;;5.65;;
83659;SDS011;73632;50.808;3.422;2024-02-04T12:56:51;19.08;;;3.25;;
83659;SDS011;73632;50.808;3.422;2024-02-04T13:01:54;15.15;;;3.17;;
83659;SDS011;73632;50.808;3.422;2024-02-04T13:04:21;13.27;;;3.35;;
83659;SDS011;73632;50.808;3.422;2024-02-04T13:06:47;21.48;;;5.28;;
83659;SDS011;73632;50.808;3.422;2024-02-04T13:09:15;21.17;;;8.13;;
83659;SDS011;73632;50.808;3.422;2024-02-04T13:11:41;15.57;;;4.55;;
83659;SDS011;73632;50.808;3.422;2024-02-04T13:14:07;17.75;;;4.10;;
83659;SDS011;73632;50.808;3.422;2024-02-04T13:16:33;16.52;;;3.85;;
83659;SDS011;73632;50.808;3.422;2024-02-04T13:19:01;21.02;;;4.35;;
83659;SDS011;73632;50.808;3.422;2024-02-04T13:21:29;21.50;;;4.45;;
83659;SDS011;73632;50.808;3.422;2024-02-04T13:23:55;16.30;;;4.18;;
83659;SDS011;73632;50.808;3.422;2024-02-04T13:26:21;20.10;;;3.75;;
83659;SDS011;73632;50.808;3.422;2024-02-04T13:28:46;17.58;;;4.15;;
83659;SDS011;73632;50.808;3.422;2024-02-04T13:31:12;19.52;;;3.47;;
83659;SDS011;73632;50.808;3.422;2024-02-04T13:33:38;20.83;;;3.63;;
83659;SDS011;73632;50.808;3.422;2024-02-04T13:36:04;17.50;;;3.45;;
83659;SDS011;73632;50.808;3.422;2024-02-04T13:38:31;13.77;;;3.60;;
83659;SDS011;73632;50.808;3.422;2024-02-04T13:40:59;16.27;;;3.33;;
83659;SDS011;73632;50.808;3.422;2024-02-04T13:43:24;20.48;;;4.30;;
83659;SDS011;73632;50.808;3.422;2024-02-04T13:45:53;19.27;;;3.42;;
83659;SDS011;73632;50.808;3.422;2024-02-04T13:48:18;23.27;;;4.05;;
83659;SDS011;73632;50.808;3.422;2024-02-04T13:50:49;24.60;;;3.17;;
83659;SDS011;73632;50.808;3.422;2024-02-04T13:53:15;26.80;;;4.60;;
83659;SDS011;73632;50.808;3.422;2024-02-04T13:55:41;18.40;;;3.20;;
83659;SDS011;73632;50.808;3.422;2024-02-04T13:58:06;16.63;;;4.13;;
83659;SDS011;73632;50.808;3.422;2024-02-04T14:00:32;19.65;;;3.90;;
83659;SDS011;73632;50.808;3.422;2024-02-04T14:02:58;18.85;;;3.70;;
83659;SDS011;73632;50.808;3.422;2024-02-04T14:05:23;17.33;;;3.55;;
83659;SDS011;73632;50.808;3.422;2024-02-04T14:07:50;17.23;;;3.20;;
83659;SDS011;73632;50.808;3.422;2024-02-04T14:10:15;21.05;;;3.50;;
83659;SDS011;73632;50.808;3.422;2024-02-04T14:12:47;17.95;;;3.60;;
83659;SDS011;73632;50.808;3.422;2024-02-04T14:15:12;18.75;;;3.28;;
83659;SDS011;73632;50.808;3.422;2024-02-04T14:17:38;18.65;;;2.90;;
83659;SDS011;73632;50.808;3.422;2024-02-04T14:20:05;28.77;;;4.22;;
83659;SDS011;73632;50.808;3.422;2024-02-04T14:22:35;16.00;;;3.05;;
83659;SDS011;73632;50.808;3.422;2024-02-04T14:25:00;29.63;;;4.50;;
83659;SDS011;73632;50.808;3.422;2024-02-04T14:27:26;28.50;;;4.68;;
83659;SDS011;73632;50.808;3.422;2024-02-04T14:29:51;21.67;;;3.75;;
83659;SDS011;73632;50.808;3.422;2024-02-04T14:32:16;13.27;;;2.47;;
83659;SDS011;73632;50.808;3.422;2024-02-04T14:34:43;16.20;;;3.50;;